Time;durP1;ratioP1;P1;durP2;ratioP2;P2;SDS_P1;SDS_P2;PMS_P1;PMS_P2;Temp;Humidity;BMP_temperature;BMP_pressure;BME280_temperature;BME280_humidity;BME280_pressure;Samples;Min_cycle;Max_cycle;Signal;HPM_P1;HPM_P2
2022/10/14 00:00:32;;;;;;;9.75;6.78;;;14.70;99.90;;;;;;4138973;28;20104;-66
2022/10/14 00:02:33;;;;;;;8.73;6.75;;;14.60;99.90;;;;;;4136866;28;20038;-66
2022/10/14 00:04:33;;;;;;;9.10;6.25;;;14.60;99.90;;;;;;4130204;28;20117;-66
2022/10/14 00:06:34;;;;;;;10.32;7.05;;;14.60;99.90;;;;;;4138060;28;20034;-66
2022/10/14 00:08:35;;;;;;;11.95;6.70;;;14.60;99.90;;;;;;4135631;28;20050;-66
2022/10/14 00:10:37;;;;;;;10.85;7.05;;;14.60;99.90;;;;;;4139535;28;20052;-66
2022/10/14 00:12:38;;;;;;;11.10;6.82;;;14.60;99.90;;;;;;4138087;28;20096;-65
2022/10/14 00:14:41;;;;;;;8.65;5.70;;;14.60;99.90;;;;;;4134447;28;20027;-66
2022/10/14 00:16:44;;;;;;;8.50;6.53;;;14.60;99.90;;;;;;4140594;28;20487;-66
2022/10/14 00:18:46;;;;;;;7.15;5.78;;;14.60;99.90;;;;;;4136727;28;20049;-66
2022/10/14 00:21:13;;;;;;;10.98;6.93;;;14.70;99.90;;;;;;4133723;28;20500;-66
2022/10/14 00:23:13;;;;;;;8.93;6.13;;;14.60;99.90;;;;;;4132170;28;20034;-66
2022/10/14 00:25:14;;;;;;;10.15;7.10;;;14.70;99.90;;;;;;4136967;28;20054;-66
2022/10/14 00:27:15;;;;;;;12.82;6.60;;;14.60;99.90;;;;;;4155895;28;20026;-66
2022/10/14 00:29:17;;;;;;;12.65;8.10;;;14.60;99.90;;;;;;4133455;28;20042;-66
2022/10/14 00:31:18;;;;;;;;;;;14.70;99.90;;;;;;4132357;28;20030;-66
2022/10/14 00:33:18;;;;;;;8.52;6.25;;;14.70;99.90;;;;;;4133619;28;20004;-66
2022/10/14 00:35:19;;;;;;;10.52;7.00;;;14.70;99.90;;;;;;4139959;28;20029;-66
2022/10/14 00:37:20;;;;;;;11.15;6.90;;;14.70;99.90;;;;;;4140837;28;20406;-66
2022/10/14 00:39:20;;;;;;;11.43;7.50;;;14.70;99.90;;;;;;4142860;28;20475;-66
2022/10/14 00:41:29;;;;;;;11.02;7.18;;;14.70;99.90;;;;;;4137408;28;20033;-66
2022/10/14 00:43:54;;;;;;;12.82;7.90;;;14.70;99.90;;;;;;4141774;28;20064;-66
2022/10/14 00:45:55;;;;;;;9.10;7.35;;;14.70;99.90;;;;;;4165833;28;20031;-66
2022/10/14 00:47:55;;;;;;;9.45;7.22;;;14.70;99.90;;;;;;4151596;28;20341;-66
2022/10/14 00:49:58;;;;;;;11.77;8.35;;;14.70;99.90;;;;;;4142895;28;20476;-66
2022/10/14 00:52:18;;;;;;;10.25;7.65;;;14.70;99.90;;;;;;4139385;28;20046;-66
2022/10/14 00:54:23;;;;;;;12.02;8.32;;;14.70;99.90;;;;;;4133488;28;20042;-66
2022/10/14 00:56:27;;;;;;;10.63;7.65;;;14.70;99.90;;;;;;4137245;28;20161;-66
2022/10/14 00:58:28;;;;;;;11.15;7.80;;;14.70;99.90;;;;;;4156532;28;20033;-66
2022/10/14 01:00:28;;;;;;;11.65;7.68;;;14.70;99.90;;;;;;4134736;28;20029;-64
2022/10/14 01:02:29;;;;;;;12.23;8.23;;;14.80;99.90;;;;;;4147803;28;20065;-64
2022/10/14 01:04:30;;;;;;;11.98;7.78;;;14.80;99.90;;;;;;4151026;28;20034;-64
2022/10/14 01:06:41;;;;;;;10.85;7.38;;;14.70;99.90;;;;;;4149404;28;20033;-64
2022/10/14 01:08:59;;;;;;;11.15;7.53;;;14.80;99.90;;;;;;4155264;28;20081;-64
2022/10/14 01:11:12;;;;;;;10.52;8.15;;;14.80;99.90;;;;;;4142270;28;20030;-65
2022/10/14 01:13:25;;;;;;;13.50;9.00;;;14.80;99.90;;;;;;4151604;28;20048;-63
2022/10/14 01:15:50;;;;;;;13.07;8.18;;;14.80;99.90;;;;;;4134545;28;20034;-64
2022/10/14 01:18:26;;;;;;;16.27;9.15;;;14.80;99.90;;;;;;4134593;28;20030;-65
2022/10/14 01:21:06;;;;;;;13.18;9.23;;;14.80;99.90;;;;;;4150282;28;20049;-64
2022/10/14 01:23:20;;;;;;;12.60;9.40;;;14.70;99.90;;;;;;4138510;28;20046;-65
2022/10/14 01:26:13;;;;;;;13.15;8.43;;;14.70;99.90;;;;;;4149182;28;20544;-64
2022/10/14 01:28:53;;;;;;;13.25;8.48;;;14.70;99.90;;;;;;4125607;28;20038;-63
2022/10/14 01:31:04;;;;;;;10.40;8.05;;;14.70;99.90;;;;;;4136503;28;20068;-64
2022/10/14 01:33:18;;;;;;;13.43;8.60;;;14.70;99.90;;;;;;4134731;28;20487;-64
2022/10/14 01:35:28;;;;;;;13.27;9.48;;;14.70;99.90;;;;;;4133407;28;20034;-64
2022/10/14 01:37:33;;;;;;;15.18;9.75;;;14.70;99.90;;;;;;4142077;28;20026;-64
2022/10/14 01:39:46;;;;;;;15.50;10.43;;;14.70;99.90;;;;;;4143272;28;20034;-64
2022/10/14 01:41:53;;;;;;;12.98;9.13;;;14.70;99.90;;;;;;4139949;28;20030;-65
2022/10/14 01:43:57;;;;;;;17.73;10.20;;;14.70;99.90;;;;;;4131898;28;20083;-64
2022/10/14 01:46:01;;;;;;;16.73;9.52;;;14.70;99.90;;;;;;4137958;28;20118;-63
2022/10/14 01:48:05;;;;;;;13.05;9.18;;;14.70;99.90;;;;;;4141347;28;20398;-64
2022/10/14 01:50:13;;;;;;;11.40;8.57;;;14.70;99.90;;;;;;4139382;28;20531;-64
2022/10/14 01:52:21;;;;;;;14.18;8.85;;;14.70;99.90;;;;;;4137971;28;20488;-64
2022/10/14 01:54:29;;;;;;;11.55;8.43;;;14.70;99.90;;;;;;4139707;28;20038;-65
2022/10/14 01:56:31;;;;;;;12.15;8.45;;;14.70;99.90;;;;;;4136457;28;20034;-64
2022/10/14 01:58:33;;;;;;;10.10;7.93;;;14.70;99.90;;;;;;4142811;28;20041;-64
2022/10/14 02:00:34;;;;;;;13.10;8.38;;;14.70;99.90;;;;;;4138540;28;20609;-64
2022/10/14 02:02:36;;;;;;;13.68;8.80;;;14.70;99.90;;;;;;4132180;28;20034;-64
2022/10/14 02:04:37;;;;;;;13.85;9.05;;;14.70;99.90;;;;;;4148921;28;20034;-64
2022/10/14 02:06:41;;;;;;;9.77;7.55;;;14.70;99.90;;;;;;4137727;28;20044;-64
2022/10/14 02:09:08;;;;;;;10.05;7.70;;;14.70;99.90;;;;;;4134310;28;20066;-63
2022/10/14 02:11:14;;;;;;;12.35;8.18;;;14.70;99.90;;;;;;4137049;28;20033;-64
2022/10/14 02:13:34;;;;;;;11.10;7.90;;;14.70;99.90;;;;;;4141616;28;20052;-66
2022/10/14 02:15:48;;;;;;;9.85;7.72;;;14.70;99.90;;;;;;4139203;28;20038;-67
2022/10/14 02:18:12;;;;;;;10.52;7.20;;;14.70;99.90;;;;;;4138004;28;20431;-67
2022/10/14 02:20:18;;;;;;;11.05;7.57;;;14.70;99.90;;;;;;4133460;28;20030;-67
2022/10/14 02:22:30;;;;;;;8.80;7.45;;;14.70;99.90;;;;;;4133865;28;20127;-67
2022/10/14 02:24:36;;;;;;;12.70;8.77;;;14.70;99.90;;;;;;4137050;28;20399;-67
2022/10/14 02:26:39;;;;;;;10.90;7.85;;;14.70;99.90;;;;;;4139811;28;20156;-67
2022/10/14 02:28:41;;;;;;;9.88;7.15;;;14.70;99.90;;;;;;4135952;28;20490;-67
2022/10/14 02:30:45;;;;;;;9.90;6.60;;;14.70;99.90;;;;;;4152785;28;20052;-67
2022/10/14 02:32:48;;;;;;;9.13;7.43;;;14.70;99.90;;;;;;4139236;28;20038;-67
2022/10/14 02:34:53;;;;;;;11.68;7.85;;;14.80;99.90;;;;;;4138722;28;20038;-67
2022/10/14 02:36:55;;;;;;;10.80;8.18;;;14.70;99.90;;;;;;4133103;28;20046;-67
2022/10/14 02:38:58;;;;;;;10.07;7.70;;;14.70;99.90;;;;;;4138526;28;20415;-67
2022/10/14 02:41:03;;;;;;;10.18;7.53;;;14.70;99.90;;;;;;4138583;28;20038;-67
2022/10/14 02:43:06;;;;;;;9.82;7.57;;;14.80;99.90;;;;;;4138968;28;20068;-67
2022/10/14 02:45:09;;;;;;;11.60;7.90;;;14.70;99.90;;;;;;4130783;28;20113;-67
2022/10/14 02:47:09;;;;;;;;;;;14.80;99.90;;;;;;4136943;28;20038;-67
2022/10/14 02:49:10;;;;;;;9.02;6.82;;;14.80;99.90;;;;;;4137614;28;20275;-67
2022/10/14 02:51:11;;;;;;;8.63;6.72;;;14.80;99.90;;;;;;4135960;28;20057;-67
2022/10/14 02:53:14;;;;;;;8.90;6.85;;;14.80;99.90;;;;;;4133623;28;20033;-67
2022/10/14 02:55:15;;;;;;;9.38;7.30;;;14.80;99.90;;;;;;4139955;28;20084;-67
2022/10/14 02:57:15;;;;;;;11.43;8.00;;;14.80;99.90;;;;;;4131172;28;20026;-67
2022/10/14 02:59:16;;;;;;;10.65;7.32;;;14.80;99.90;;;;;;4134320;28;20061;-67
2022/10/14 03:01:17;;;;;;;9.45;7.18;;;14.80;99.90;;;;;;4137646;28;20034;-67
2022/10/14 03:03:17;;;;;;;9.63;7.20;;;14.80;99.90;;;;;;4133083;28;20107;-67
2022/10/14 03:05:18;;;;;;;10.15;7.30;;;14.80;99.90;;;;;;4132303;28;20081;-67
2022/10/14 03:07:18;;;;;;;8.48;7.18;;;14.80;99.90;;;;;;4138760;28;20040;-67
2022/10/14 03:09:19;;;;;;;9.75;7.32;;;14.80;99.90;;;;;;4137511;28;20069;-67
2022/10/14 03:11:20;;;;;;;10.88;7.20;;;14.80;99.90;;;;;;4139094;28;20387;-67
2022/10/14 03:13:20;;;;;;;10.00;7.05;;;14.80;99.90;;;;;;4152324;28;20092;-67
2022/10/14 03:15:21;;;;;;;9.05;7.32;;;14.70;99.90;;;;;;4133374;28;20041;-67
2022/10/14 03:17:21;;;;;;;8.48;6.70;;;14.80;99.90;;;;;;4136208;28;20044;-67
2022/10/14 03:19:22;;;;;;;11.48;7.65;;;14.70;99.90;;;;;;4148084;28;20425;-67
2022/10/14 03:21:23;;;;;;;9.23;7.28;;;14.70;99.90;;;;;;4133963;28;20034;-67
2022/10/14 03:23:23;;;;;;;12.40;7.40;;;14.70;99.90;;;;;;4153031;28;20029;-67
2022/10/14 03:25:24;;;;;;;10.57;6.63;;;14.70;99.90;;;;;;4129601;28;20899;-67
2022/10/14 03:27:25;;;;;;;13.15;7.40;;;14.80;99.90;;;;;;4151688;28;20029;-67
2022/10/14 03:29:25;;;;;;;9.10;6.80;;;14.70;99.90;;;;;;4136218;28;20450;-67
2022/10/14 03:31:26;;;;;;;9.15;7.40;;;14.70;99.90;;;;;;4138947;28;20030;-67
2022/10/14 03:33:26;;;;;;;10.85;7.78;;;14.70;99.90;;;;;;4136094;28;20092;-67
2022/10/14 03:35:27;;;;;;;9.88;7.45;;;14.70;99.90;;;;;;4135955;28;20030;-67
2022/10/14 03:37:27;;;;;;;9.98;7.15;;;14.70;99.90;;;;;;4148587;28;20034;-67
2022/10/14 03:39:28;;;;;;;8.35;6.60;;;14.70;99.90;;;;;;4135276;28;20030;-67
2022/10/14 03:41:29;;;;;;;9.23;6.90;;;14.70;99.90;;;;;;4135749;28;20065;-67
2022/10/14 03:43:29;;;;;;;9.43;6.55;;;14.70;99.90;;;;;;4134425;28;20030;-67
2022/10/14 03:45:30;;;;;;;7.95;6.70;;;14.70;99.90;;;;;;4133230;28;20037;-67
2022/10/14 03:47:30;;;;;;;10.40;6.18;;;14.70;99.90;;;;;;4138570;28;20105;-67
2022/10/14 03:49:31;;;;;;;10.73;6.22;;;14.70;99.90;;;;;;4135421;28;20112;-67
2022/10/14 03:51:32;;;;;;;8.55;6.22;;;14.70;99.90;;;;;;4138783;28;20499;-67
2022/10/14 03:53:32;;;;;;;8.35;6.05;;;14.70;99.90;;;;;;4138033;28;20545;-67
2022/10/14 03:55:33;;;;;;;7.80;6.20;;;14.70;99.90;;;;;;4137127;28;20501;-67
2022/10/14 03:57:34;;;;;;;8.80;6.32;;;14.70;99.90;;;;;;4138371;28;20030;-67
2022/10/14 03:59:34;;;;;;;11.55;6.80;;;14.70;99.90;;;;;;4133106;28;20522;-67
2022/10/14 04:01:35;;;;;;;8.55;6.30;;;14.70;99.90;;;;;;4149183;28;20038;-67
2022/10/14 04:03:35;;;;;;;7.72;6.22;;;14.70;99.90;;;;;;4128554;28;20433;-67
2022/10/14 04:05:36;;;;;;;7.80;6.35;;;14.70;99.90;;;;;;4150992;28;20045;-67
2022/10/14 04:07:37;;;;;;;9.57;6.95;;;14.70;99.90;;;;;;4141189;28;20038;-67
2022/10/14 04:09:37;;;;;;;7.97;5.90;;;14.70;99.90;;;;;;4134774;28;20038;-67
2022/10/14 04:11:38;;;;;;;8.32;6.30;;;14.70;99.90;;;;;;4136498;28;20182;-67
2022/10/14 04:13:38;;;;;;;9.25;6.78;;;14.70;99.90;;;;;;4140187;28;20480;-67
2022/10/14 04:15:39;;;;;;;7.50;5.88;;;14.70;99.90;;;;;;4138931;28;20034;-67
2022/10/14 04:17:39;;;;;;;10.30;6.85;;;14.70;99.90;;;;;;4153452;28;20025;-67
2022/10/14 04:19:40;;;;;;;8.98;6.70;;;14.70;99.90;;;;;;4142543;28;20100;-67
2022/10/14 04:21:41;;;;;;;7.53;6.05;;;14.70;99.90;;;;;;4141918;28;20472;-67
2022/10/14 04:23:41;;;;;;;7.85;6.70;;;14.70;99.90;;;;;;4133494;28;20045;-67
2022/10/14 04:25:42;;;;;;;9.48;7.18;;;14.70;99.90;;;;;;4139248;28;20054;-67
2022/10/14 04:27:43;;;;;;;8.25;6.70;;;14.70;99.90;;;;;;4134709;28;20200;-67
2022/10/14 04:29:43;;;;;;;10.50;7.38;;;14.70;99.90;;;;;;4154420;28;20045;-66
2022/10/14 04:31:44;;;;;;;7.78;6.32;;;14.70;99.90;;;;;;4141840;28;20641;-67
2022/10/14 04:33:44;;;;;;;8.20;6.93;;;14.70;99.90;;;;;;4135887;28;20395;-67
2022/10/14 04:35:45;;;;;;;8.38;6.60;;;14.70;99.90;;;;;;4134761;28;20385;-66
2022/10/14 04:37:45;;;;;;;9.13;6.85;;;14.70;99.90;;;;;;4139650;28;20039;-67
2022/10/14 04:39:46;;;;;;;7.30;6.38;;;14.60;99.90;;;;;;4137350;28;20030;-67
2022/10/14 04:41:47;;;;;;;8.27;6.38;;;14.70;99.90;;;;;;4140775;28;20045;-66
2022/10/14 04:43:47;;;;;;;7.72;6.70;;;14.60;99.90;;;;;;4151153;28;20038;-67
2022/10/14 04:45:48;;;;;;;10.43;6.53;;;14.70;99.90;;;;;;4140195;28;20399;-67
2022/10/14 04:47:49;;;;;;;7.45;5.95;;;14.60;99.90;;;;;;4139377;28;20475;-67
2022/10/14 04:49:49;;;;;;;6.90;5.50;;;14.60;99.90;;;;;;4148298;28;20545;-67
2022/10/14 04:51:50;;;;;;;6.55;5.20;;;14.60;99.90;;;;;;4143066;28;20113;-67
2022/10/14 04:53:50;;;;;;;7.43;5.93;;;14.70;99.90;;;;;;4135274;28;20061;-66
2022/10/14 04:55:51;;;;;;;6.22;5.63;;;14.60;99.90;;;;;;4139140;28;20034;-66
2022/10/14 04:57:52;;;;;;;8.75;5.80;;;14.60;99.90;;;;;;4140457;28;20065;-66
2022/10/14 04:59:52;;;;;;;6.20;5.28;;;14.60;99.90;;;;;;4135804;28;20039;-67
2022/10/14 05:01:53;;;;;;;8.68;6.80;;;14.60;99.90;;;;;;4154589;28;20331;-66
2022/10/14 05:03:54;;;;;;;7.43;6.30;;;14.60;99.90;;;;;;4139129;28;20026;-67
2022/10/14 05:05:54;;;;;;;6.68;5.85;;;14.60;99.90;;;;;;4153098;28;20030;-67
2022/10/14 05:07:55;;;;;;;6.95;5.95;;;14.60;99.90;;;;;;4134363;28;20431;-67
2022/10/14 05:09:56;;;;;;;7.97;6.30;;;14.60;99.90;;;;;;4141074;28;20049;-67
2022/10/14 05:11:56;;;;;;;6.85;6.07;;;14.50;99.90;;;;;;4140854;28;20030;-67
2022/10/14 05:13:57;;;;;;;8.00;6.85;;;14.50;99.90;;;;;;4137695;28;21027;-67
2022/10/14 05:15:58;;;;;;;7.63;6.20;;;14.60;99.90;;;;;;4132360;28;20496;-67
2022/10/14 05:17:58;;;;;;;7.70;6.40;;;14.50;99.90;;;;;;4139660;28;20071;-67
2022/10/14 05:19:59;;;;;;;7.38;5.57;;;14.50;99.90;;;;;;4138138;28;20038;-67
2022/10/14 05:21:59;;;;;;;8.52;6.85;;;14.60;99.90;;;;;;4139183;28;20435;-67
2022/10/14 05:24:00;;;;;;;8.90;7.22;;;14.60;99.90;;;;;;4156936;28;20519;-67
2022/10/14 05:26:01;;;;;;;8.82;7.10;;;14.50;99.90;;;;;;4141936;28;20030;-67
2022/10/14 05:28:02;;;;;;;9.00;6.68;;;14.60;99.90;;;;;;4140564;28;20391;-67
2022/10/14 05:30:02;;;;;;;9.55;7.30;;;14.50;99.90;;;;;;4144919;28;20037;-67
2022/10/14 05:32:03;;;;;;;9.40;7.65;;;14.60;99.90;;;;;;4138485;28;20041;-67
2022/10/14 05:34:04;;;;;;;10.48;8.45;;;14.60;99.90;;;;;;4142574;28;20495;-67
2022/10/14 05:36:05;;;;;;;9.88;7.57;;;14.50;99.90;;;;;;4150603;28;20116;-67
2022/10/14 05:38:05;;;;;;;8.77;7.57;;;14.60;99.90;;;;;;4134539;28;20088;-67
2022/10/14 05:40:07;;;;;;;9.75;7.57;;;14.60;99.90;;;;;;4141996;28;20502;-67
2022/10/14 05:42:07;;;;;;;9.50;8.07;;;14.60;99.90;;;;;;4135743;28;20121;-67
2022/10/14 05:44:10;;;;;;;10.77;8.55;;;14.60;99.90;;;;;;4138687;28;20037;-67
2022/10/14 05:46:11;;;;;;;;;;;14.60;99.90;;;;;;4141348;28;20434;-67
2022/10/14 05:48:11;;;;;;;10.65;8.52;;;14.60;99.90;;;;;;4139219;28;19914;-67
2022/10/14 05:50:13;;;;;;;11.52;8.77;;;14.60;99.90;;;;;;4141207;28;20030;-67
2022/10/14 05:52:14;;;;;;;11.38;8.60;;;14.50;99.90;;;;;;4141329;28;20045;-67
2022/10/14 05:54:15;;;;;;;13.07;9.48;;;14.50;99.90;;;;;;4141916;28;20437;-67
2022/10/14 05:56:15;;;;;;;12.90;9.07;;;14.50;99.90;;;;;;4137336;28;20037;-67
2022/10/14 05:58:16;;;;;;;10.98;8.15;;;14.50;99.90;;;;;;4139239;28;20038;-67
2022/10/14 06:00:18;;;;;;;11.88;8.75;;;14.50;99.90;;;;;;4137230;28;20064;-67
2022/10/14 06:02:19;;;;;;;12.38;8.10;;;14.50;99.90;;;;;;4137865;28;20049;-67
2022/10/14 06:04:20;;;;;;;10.20;8.20;;;14.50;99.90;;;;;;4142984;28;20434;-66
2022/10/14 06:06:20;;;;;;;10.63;8.45;;;14.50;99.90;;;;;;4150999;28;20037;-66
2022/10/14 06:08:22;;;;;;;10.93;8.32;;;14.50;99.90;;;;;;4141635;28;20113;-66
2022/10/14 06:10:23;;;;;;;12.45;8.70;;;14.50;99.90;;;;;;4139007;28;20049;-66
2022/10/14 06:12:23;;;;;;;11.43;8.55;;;14.50;99.90;;;;;;4153967;28;20064;-66
2022/10/14 06:14:24;;;;;;;11.48;8.30;;;14.50;99.90;;;;;;4143306;28;20040;-66
2022/10/14 06:16:24;;;;;;;9.13;7.43;;;14.50;99.90;;;;;;4139746;28;20517;-66
2022/10/14 06:18:25;;;;;;;8.75;7.20;;;14.50;99.90;;;;;;4137068;28;20034;-67
2022/10/14 06:20:26;;;;;;;9.32;7.60;;;14.60;99.90;;;;;;4137544;28;20042;-66
2022/10/14 06:22:27;;;;;;;9.13;7.28;;;14.50;99.90;;;;;;4138516;28;20152;-66
2022/10/14 06:24:28;;;;;;;9.27;7.55;;;14.50;99.90;;;;;;4139723;28;20033;-66
2022/10/14 06:26:28;;;;;;;10.07;7.60;;;14.60;99.90;;;;;;4154721;28;20542;-66
2022/10/14 06:28:29;;;;;;;10.30;7.38;;;14.60;99.90;;;;;;4135927;28;20042;-66
2022/10/14 06:30:31;;;;;;;9.23;7.03;;;14.60;99.90;;;;;;4133985;28;20044;-66
2022/10/14 06:32:31;;;;;;;8.15;6.30;;;14.60;99.90;;;;;;4138688;28;20984;-67
2022/10/14 06:34:33;;;;;;;10.50;6.78;;;14.60;99.90;;;;;;4138116;28;20041;-66
2022/10/14 06:36:34;;;;;;;8.70;6.70;;;14.60;99.90;;;;;;4136102;28;20042;-66
2022/10/14 06:38:34;;;;;;;7.65;6.40;;;14.50;99.90;;;;;;4136456;28;20034;-67
2022/10/14 06:40:36;;;;;;;7.32;6.40;;;14.50;99.90;;;;;;4137419;28;20618;-67
2022/10/14 06:42:37;;;;;;;9.38;6.40;;;14.50;99.90;;;;;;4139853;28;20107;-66
2022/10/14 06:44:37;;;;;;;8.60;5.88;;;14.50;99.90;;;;;;4132688;28;20030;-67
2022/10/14 06:46:38;;;;;;;7.68;6.43;;;14.50;99.90;;;;;;4135940;28;20084;-66
2022/10/14 06:48:38;;;;;;;6.82;5.95;;;14.60;99.90;;;;;;4139545;28;20068;-67
2022/10/14 06:50:40;;;;;;;7.75;6.38;;;14.50;99.90;;;;;;4153324;28;20037;-67
2022/10/14 06:52:40;;;;;;;8.50;5.53;;;14.50;99.90;;;;;;4138116;28;20034;-66
2022/10/14 06:54:41;;;;;;;6.90;5.22;;;14.60;99.90;;;;;;4140266;28;20392;-66
2022/10/14 06:56:42;;;;;;;8.82;5.85;;;14.60;99.90;;;;;;4149911;28;20152;-66
2022/10/14 06:58:42;;;;;;;9.30;5.88;;;14.50;99.90;;;;;;4139346;28;20038;-66
2022/10/14 07:00:43;;;;;;;7.13;5.30;;;14.50;99.90;;;;;;4154083;28;20034;-66
2022/10/14 07:02:43;;;;;;;8.02;5.80;;;14.60;99.90;;;;;;4139277;28;20435;-66
2022/10/14 07:04:44;;;;;;;8.02;5.70;;;14.60;99.90;;;;;;4153613;28;20084;-66
2022/10/14 07:06:45;;;;;;;7.32;6.18;;;14.50;99.90;;;;;;4138031;28;20042;-66
2022/10/14 07:08:45;;;;;;;8.00;5.68;;;14.50;99.90;;;;;;4138979;28;20053;-66
2022/10/14 07:10:47;;;;;;;6.28;5.40;;;14.50;99.90;;;;;;4153226;28;20407;-66
2022/10/14 07:12:47;;;;;;;9.45;5.60;;;14.50;99.90;;;;;;4141217;28;20034;-67
2022/10/14 07:14:48;;;;;;;7.18;5.70;;;14.50;99.90;;;;;;4138299;28;20077;-67
2022/10/14 07:16:48;;;;;;;10.10;5.50;;;14.50;99.90;;;;;;4139092;28;20040;-67
2022/10/14 07:18:49;;;;;;;6.90;4.82;;;14.60;99.90;;;;;;4138012;28;20042;-66
2022/10/14 07:20:50;;;;;;;6.93;4.78;;;14.50;99.90;;;;;;4136540;28;20415;-67
2022/10/14 07:22:55;;;;;;;9.35;5.93;;;14.50;99.90;;;;;;4139985;28;20426;-67
2022/10/14 07:24:55;;;;;;;10.98;6.22;;;14.50;99.90;;;;;;4138074;28;20044;-66
2022/10/14 07:26:56;;;;;;;6.18;4.90;;;14.50;99.90;;;;;;4136275;28;20473;-66
2022/10/14 07:28:57;;;;;;;7.03;4.85;;;14.50;99.90;;;;;;4137835;28;20507;-66
2022/10/14 07:30:59;;;;;;;9.75;5.35;;;14.50;99.90;;;;;;4135961;28;20432;-66
2022/10/14 07:32:59;;;;;;;10.00;4.80;;;14.50;99.90;;;;;;4139633;28;20108;-67
2022/10/14 07:35:00;;;;;;;6.68;4.32;;;14.50;99.90;;;;;;4153391;28;20071;-67
2022/10/14 07:37:01;;;;;;;6.68;4.88;;;14.60;99.90;;;;;;4138986;28;20563;-66
2022/10/14 07:39:04;;;;;;;6.47;4.53;;;14.50;99.90;;;;;;4138448;28;20046;-66
2022/10/14 07:41:15;;;;;;;6.20;4.80;;;14.50;99.90;;;;;;4152327;28;20049;-67
2022/10/14 07:43:16;;;;;;;5.30;4.35;;;14.50;99.90;;;;;;4141597;28;20067;-67
2022/10/14 07:45:19;;;;;;;5.43;4.38;;;14.50;99.90;;;;;;4139011;28;20034;-66
2022/10/14 07:47:20;;;;;;;6.47;4.53;;;14.50;99.90;;;;;;4142131;28;20036;-66
2022/10/14 07:49:21;;;;;;;7.90;4.97;;;14.60;99.90;;;;;;4141739;28;20080;-67
2022/10/14 07:51:22;;;;;;;6.38;4.43;;;14.50;99.90;;;;;;4142175;28;20091;-67
2022/10/14 07:53:24;;;;;;;4.80;3.83;;;14.60;99.90;;;;;;4143288;28;20172;-67
2022/10/14 07:55:25;;;;;;;7.30;4.43;;;14.60;99.90;;;;;;4146334;28;20667;-67
2022/10/14 07:57:27;;;;;;;5.95;4.40;;;14.60;99.90;;;;;;4142428;28;20030;-67
2022/10/14 07:59:27;;;;;;;5.53;4.27;;;14.60;99.90;;;;;;4138492;28;20034;-67
2022/10/14 08:01:28;;;;;;;4.93;3.95;;;14.60;99.90;;;;;;4141414;28;20273;-67
2022/10/14 08:03:28;;;;;;;6.65;4.65;;;14.60;99.90;;;;;;4141189;28;20045;-67
2022/10/14 08:05:29;;;;;;;7.97;4.65;;;14.60;99.90;;;;;;4155221;28;20049;-66
2022/10/14 08:07:30;;;;;;;5.88;4.18;;;14.60;99.90;;;;;;4143831;28;20030;-67
2022/10/14 08:09:32;;;;;;;4.18;3.40;;;14.60;99.90;;;;;;4157001;28;20056;-67
2022/10/14 08:11:33;;;;;;;5.72;3.72;;;14.60;99.90;;;;;;4140732;28;20030;-67
2022/10/14 08:13:34;;;;;;;7.50;3.92;;;14.70;99.90;;;;;;4141124;28;20418;-66
2022/10/14 08:15:39;;;;;;;4.78;3.85;;;14.70;99.90;;;;;;4142680;28;20533;-66
2022/10/14 08:17:39;;;;;;;6.93;3.95;;;14.70;99.90;;;;;;4142947;28;20034;-66
2022/10/14 08:19:40;;;;;;;6.93;4.15;;;14.70;99.90;;;;;;4141910;28;20037;-67
2022/10/14 08:21:42;;;;;;;6.65;4.40;;;14.70;99.90;;;;;;4140347;28;20121;-66
2022/10/14 08:23:43;;;;;;;5.50;4.13;;;14.70;99.90;;;;;;4143457;28;20553;-66
2022/10/14 08:25:46;;;;;;;7.47;4.85;;;14.70;99.90;;;;;;4141809;28;20026;-66
2022/10/14 08:27:49;;;;;;;8.90;5.13;;;14.70;99.90;;;;;;4142691;28;20034;-67
2022/10/14 08:29:50;;;;;;;10.57;5.43;;;14.70;99.90;;;;;;4139289;28;20119;-67
2022/10/14 08:31:52;;;;;;;7.55;5.70;;;14.70;99.90;;;;;;4141928;28;20030;-66
2022/10/14 08:33:54;;;;;;;5.70;4.63;;;14.70;99.90;;;;;;4148409;28;20550;-67
2022/10/14 08:35:54;;;;;;;7.45;5.47;;;14.80;99.90;;;;;;4139584;28;20049;-67
2022/10/14 08:38:00;;;;;;;8.70;5.82;;;14.80;99.90;;;;;;4141995;28;20561;-66
2022/10/14 08:40:01;;;;;;;7.68;5.72;;;14.80;99.90;;;;;;4140959;28;20454;-67
2022/10/14 08:42:12;;;;;;;8.68;5.90;;;14.80;99.90;;;;;;4140595;28;20042;-67
2022/10/14 08:44:31;;;;;;;5.28;4.50;;;14.80;99.90;;;;;;4143414;28;20034;-67
2022/10/14 08:46:53;;;;;;;8.27;5.50;;;14.90;99.90;;;;;;4139307;28;20095;-67
2022/10/14 08:49:01;;;;;;;5.68;4.72;;;14.80;99.90;;;;;;4138618;28;20747;-67
2022/10/14 08:51:15;;;;;;;6.70;4.30;;;14.80;99.90;;;;;;4141342;28;20100;-67
2022/10/14 08:53:27;;;;;;;5.60;4.13;;;14.90;99.90;;;;;;4140430;28;20046;-67
2022/10/14 08:55:38;;;;;;;9.75;4.85;;;14.90;99.90;;;;;;4139155;28;21112;-67
2022/10/14 08:57:55;;;;;;;7.68;3.80;;;14.90;99.90;;;;;;4141515;28;20457;-67
2022/10/14 08:59:56;;;;;;;7.97;4.05;;;15.00;99.90;;;;;;4141610;28;20046;-67
2022/10/14 09:02:02;;;;;;;4.53;3.50;;;14.90;99.90;;;;;;4155802;28;20632;-66
2022/10/14 09:04:11;;;;;;;6.45;3.85;;;15.00;99.90;;;;;;4139302;28;20508;-67
2022/10/14 09:06:18;;;;;;;7.85;4.05;;;15.00;99.90;;;;;;4141164;28;20499;-67
2022/10/14 09:08:27;;;;;;;3.85;2.97;;;15.00;99.90;;;;;;4157800;28;20029;-67
2022/10/14 09:10:38;;;;;;;6.97;3.70;;;15.00;99.90;;;;;;4138647;28;20056;-67
2022/10/14 09:12:41;;;;;;;4.80;3.50;;;15.10;99.90;;;;;;4142004;28;20061;-66
2022/10/14 09:14:53;;;;;;;6.15;3.33;;;15.10;99.90;;;;;;4140618;28;20077;-67
2022/10/14 09:17:02;;;;;;;7.05;3.60;;;15.10;99.90;;;;;;4138492;28;20081;-67
2022/10/14 09:19:09;;;;;;;4.47;3.40;;;15.10;99.90;;;;;;4141656;28;20050;-67
2022/10/14 09:21:22;;;;;;;4.80;3.83;;;15.20;99.90;;;;;;4138449;28;20513;-67
2022/10/14 09:23:26;;;;;;;6.82;3.45;;;15.20;99.90;;;;;;4139470;28;20040;-67
2022/10/14 09:25:31;;;;;;;5.10;4.10;;;15.20;99.90;;;;;;4140411;28;20813;-67
2022/10/14 09:27:32;;;;;;;8.77;4.32;;;15.10;99.90;;;;;;4139837;28;20095;-67
2022/10/14 09:29:44;;;;;;;5.18;3.75;;;15.20;99.90;;;;;;4140579;28;20037;-67
2022/10/14 09:31:44;;;;;;;8.55;4.07;;;15.10;99.90;;;;;;4139800;28;20057;-67
2022/10/14 09:33:45;;;;;;;5.57;3.70;;;15.10;99.90;;;;;;4142366;28;20026;-67
2022/10/14 09:35:47;;;;;;;6.45;4.32;;;15.20;99.90;;;;;;4141426;28;20034;-67
2022/10/14 09:37:48;;;;;;;5.20;3.92;;;15.20;99.90;;;;;;4141238;28;20034;-67
2022/10/14 09:39:50;;;;;;;5.78;3.78;;;15.20;99.90;;;;;;4139346;28;20068;-67
2022/10/14 09:41:53;;;;;;;5.57;4.18;;;15.20;99.90;;;;;;4140594;28;20040;-67
2022/10/14 09:44:24;;;;;;;7.82;4.72;;;15.30;99.90;;;;;;4154051;28;20479;-67
2022/10/14 09:46:24;;;;;;;6.47;3.80;;;15.30;99.90;;;;;;4142221;28;20030;-67
2022/10/14 09:48:38;;;;;;;6.28;3.90;;;15.20;99.90;;;;;;4159913;28;20029;-67
2022/10/14 09:50:50;;;;;;;4.43;3.65;;;15.30;99.90;;;;;;4142416;28;20048;-67
2022/10/14 09:52:54;;;;;;;8.45;4.72;;;15.30;99.90;;;;;;4143142;28;20037;-68
2022/10/14 09:54:57;;;;;;;8.98;4.45;;;15.30;99.90;;;;;;4142386;28;20037;-67
2022/10/14 09:57:06;;;;;;;6.38;4.20;;;15.30;99.90;;;;;;4142797;28;20402;-67
2022/10/14 09:59:21;;;;;;;6.35;4.20;;;15.30;99.90;;;;;;4145429;28;20506;-67
2022/10/14 10:01:24;;;;;;;6.25;4.35;;;15.30;99.90;;;;;;4141867;28;20466;-67
2022/10/14 10:03:34;;;;;;;5.38;3.85;;;15.30;99.90;;;;;;4143271;28;20594;-67
2022/10/14 10:05:35;;;;;;;9.02;3.70;;;15.30;99.90;;;;;;4142405;28;20049;-67
2022/10/14 10:07:36;;;;;;;6.80;4.25;;;15.30;99.90;;;;;;4148291;28;20453;-67
2022/10/14 10:09:36;;;;;;;7.28;4.72;;;15.30;99.90;;;;;;4145697;28;20133;-67
2022/10/14 10:11:39;;;;;;;6.85;4.20;;;15.30;99.90;;;;;;4144206;28;20038;-67
2022/10/14 10:13:43;;;;;;;6.95;4.35;;;15.30;99.90;;;;;;4141935;28;20418;-67
2022/10/14 10:15:56;;;;;;;7.78;4.53;;;15.30;99.90;;;;;;4142590;28;20041;-68
2022/10/14 10:17:57;;;;;;;6.82;4.50;;;15.40;99.90;;;;;;4142578;28;20495;-67
2022/10/14 10:20:26;;;;;;;5.63;4.10;;;15.30;99.90;;;;;;4144769;28;20180;-67
2022/10/14 10:22:32;;;;;;;6.85;4.95;;;15.40;99.90;;;;;;4121715;28;20038;-67
2022/10/14 10:24:33;;;;;;;10.00;5.90;;;15.40;99.90;;;;;;4123381;28;20097;-67
2022/10/14 10:26:34;;;;;;;7.47;5.55;;;15.40;99.90;;;;;;4123679;28;20038;-67
2022/10/14 10:28:34;;;;;;;8.57;6.20;;;15.50;99.90;;;;;;4136208;28;20478;-67
2022/10/14 10:30:54;;;;;;;9.63;5.70;;;15.50;99.90;;;;;;4122544;28;20446;-67
2022/10/14 10:33:15;;;;;;;12.27;5.75;;;15.50;99.90;;;;;;4123027;28;20058;-67
2022/10/14 10:35:16;;;;;;;8.20;6.00;;;15.50;99.90;;;;;;4122593;28;20022;-68
2022/10/14 10:37:24;;;;;;;9.13;5.55;;;15.50;99.90;;;;;;4125161;28;20035;-67
2022/10/14 10:39:44;;;;;;;8.73;5.97;;;15.50;99.90;;;;;;4137394;28;20049;-68
2022/10/14 10:41:57;;;;;;;6.63;4.72;;;15.50;99.90;;;;;;4123129;28;20087;-67
2022/10/14 10:44:10;;;;;;;;;;;15.50;99.90;;;;;;4122331;28;20053;-67